KDLF/DLF METAR and TAF weather

Enter ICAO airport designator
Station Type Date Time Source
KDLF METAR 2019/06/26 21:57 UTC NOAA

KDLF 262157Z 13008KT 10SM SCT055 31/22 A3000 RMK DZE00DZB26E39 SLPNO P0000 T03120219 $


Station Type Date Time Source
KDLF Decoded METAR 2019/06/26 21:57 UTC NOAA

Laughlin, Laughlin Air Force Base Auxiliary Airfield, TX, United States (KDLF) 29-07-00N 100-28-00W 294M
Jun 26, 2019 - 05:57 PM EDT / 2019.06.26 2157 UTC
Wind: from the SE (130 degrees) at 9 MPH (8 KT):0
Visibility: 10 mile(s):0
Sky conditions: partly cloudy
Precipitation last hour: A trace
Temperature: 88.2 F (31.2 C)
Heat index: 94.3 F (34.6 C):1
Dew Point: 71.4 F (21.9 C)
Relative Humidity: 57%
Pressure (altimeter): 30 in. Hg (1015 hPa)
ob: KDLF 262157Z 13008KT 10SM SCT055 31/22 A3000 RMK DZE00DZB26E39 SLPNO P0000 T03120219
cycle: 22

Station Type Date Time Source
KDLF TAF 2019/06/26 21:34 UTC NOAA

TAF
AMD KDLF 262122Z 2621/2800 15010G15KT 8000 VCSH SCT020 BKN030 BKN100 QNH2998INS
BECMG 2622/2623 15010G18KT 9000 -SHRA VCTS SCT020 BKN030CB BKN100 QNH2996INS
TEMPO 2623/2700 -TSRA BKN020CB
BECMG 2700/2701 16018G23KT 9999 NSW SCT050 BKN100 QNH2997INS
BECMG 2702/2703 12012KT 9999 BKN040 QNH3003INS
BECMG 2708/2709 10010KT 8000 BR VCSH OVC010 QNH3007INS
BECMG 2717/2718 16018G23KT 9999 NSW BKN050 QNH3003INS TX33/2621Z TN24/2712Z

Example: see airport list